createdAt,value
2023-01-25T00:01:45.322Z,20.20
2023-01-25T00:04:31.997Z,18.38
2023-01-25T00:07:18.310Z,19.65
2023-01-25T00:10:05.344Z,19.83
2023-01-25T00:12:52.027Z,19.88
2023-01-25T00:15:40.067Z,20.50
2023-01-25T00:18:26.722Z,17.92
2023-01-25T00:21:14.098Z,18.42
2023-01-25T00:24:00.574Z,19.58
2023-01-25T00:26:46.968Z,19.95
2023-01-25T00:29:33.484Z,19.95
2023-01-25T00:32:55.231Z,19.75
2023-01-25T00:35:41.677Z,19.33
2023-01-25T00:38:31.181Z,19.15
2023-01-25T00:41:17.615Z,18.80
2023-01-25T00:44:04.055Z,19.67
2023-01-25T00:46:50.446Z,20.58
2023-01-25T00:49:39.822Z,21.25
2023-01-25T00:52:28.592Z,20.02
2023-01-25T00:55:15.352Z,18.92
2023-01-25T00:58:02.187Z,21.02
2023-01-25T01:00:48.454Z,20.40
2023-01-25T01:03:34.728Z,20.08
2023-01-25T01:06:22.716Z,21.60
2023-01-25T01:09:14.362Z,20.67
2023-01-25T01:12:00.975Z,21.08
2023-01-25T01:14:47.451Z,19.92
2023-01-25T01:17:34.069Z,20.33
2023-01-25T01:20:20.606Z,19.45
2023-01-25T01:23:08.418Z,19.90
2023-01-25T01:25:54.848Z,21.25
2023-01-25T01:28:41.869Z,20.58
2023-01-25T01:31:29.236Z,21.00
2023-01-25T01:34:45.436Z,22.10
2023-01-25T01:37:32.278Z,21.08
2023-01-25T01:40:20.260Z,21.33
2023-01-25T01:43:17.076Z,21.83
2023-01-25T01:46:05.333Z,21.45
2023-01-25T01:48:58.799Z,21.55
2023-01-25T01:51:48.967Z,21.98
2023-01-25T01:54:45.225Z,22.90
2023-01-25T01:57:38.088Z,20.98
2023-01-25T02:00:27.918Z,22.80
2023-01-25T02:03:16.956Z,21.27
2023-01-25T02:06:10.983Z,22.52
2023-01-25T02:08:57.907Z,21.58
2023-01-25T02:11:45.469Z,21.48
2023-01-25T02:14:34.548Z,21.75
2023-01-25T02:17:27.258Z,21.55
2023-01-25T02:20:27.629Z,21.30
2023-01-25T02:23:24.791Z,21.30
2023-01-25T02:26:12.517Z,22.08
2023-01-25T02:29:02.537Z,21.02
2023-01-25T02:34:39.258Z,20.48
2023-01-25T02:37:27.238Z,20.17
2023-01-25T02:40:14.133Z,19.95
2023-01-25T02:43:03.072Z,21.13
2023-01-25T02:45:57.282Z,23.05
2023-01-25T02:48:43.969Z,21.23
2023-01-25T02:51:33.547Z,20.88
2023-01-25T02:54:21.822Z,22.00
2023-01-25T02:57:08.528Z,23.13
2023-01-25T03:00:05.729Z,22.85
2023-01-25T03:02:52.492Z,23.42
2023-01-25T03:05:39.347Z,23.15
2023-01-25T03:08:26.032Z,22.60
2023-01-25T03:11:13.894Z,22.67
2023-01-25T03:14:01.134Z,22.52
2023-01-25T03:16:50.533Z,24.63
2023-01-25T03:19:39.969Z,22.15
2023-01-25T03:22:27.213Z,21.90
2023-01-25T03:25:14.103Z,22.85
2023-01-25T03:28:10.845Z,23.63
2023-01-25T03:30:59.090Z,24.15
2023-01-25T03:33:47.585Z,23.10
2023-01-25T03:36:34.286Z,23.88
2023-01-25T03:39:20.911Z,22.48
2023-01-25T03:42:08.252Z,23.20
2023-01-25T03:44:55.252Z,22.67
2023-01-25T03:47:42.107Z,23.92
2023-01-25T03:50:30.728Z,23.00
2023-01-25T03:53:27.395Z,24.80
2023-01-25T03:56:19.810Z,23.45
2023-01-25T03:59:15.344Z,22.13
2023-01-25T04:02:03.193Z,23.20
2023-01-25T04:04:49.873Z,23.85
2023-01-25T04:07:40.323Z,24.23
2023-01-25T04:10:28.409Z,24.73
2023-01-25T04:13:15.260Z,23.27
2023-01-25T04:16:02.332Z,23.70
2023-01-25T04:19:09.012Z,24.13
2023-01-25T04:21:55.585Z,23.42
2023-01-25T04:24:46.270Z,22.20
2023-01-25T04:27:33.032Z,22.48
2023-01-25T04:30:27.114Z,23.17
2023-01-25T04:33:14.472Z,24.13
2023-01-25T04:36:02.248Z,23.02
2023-01-25T04:38:49.325Z,22.23
2023-01-25T04:41:37.255Z,23.10
2023-01-25T04:44:25.059Z,23.10
2023-01-25T04:47:12.357Z,24.05
2023-01-25T04:49:58.967Z,23.73
2023-01-25T04:52:49.378Z,22.20
2023-01-25T04:55:36.256Z,23.77
2023-01-25T04:58:24.467Z,24.08
2023-01-25T05:01:12.337Z,24.05
2023-01-25T05:03:59.037Z,24.00
2023-01-25T05:06:58.651Z,25.50
2023-01-25T05:09:46.534Z,23.40
2023-01-25T05:12:33.267Z,25.60
2023-01-25T05:15:23.899Z,24.02
2023-01-25T05:18:11.051Z,26.23
2023-01-25T05:20:57.554Z,25.27
2023-01-25T05:23:45.825Z,23.88
2023-01-25T05:26:49.990Z,25.40
2023-01-25T05:29:39.761Z,31.20
2023-01-25T05:32:29.785Z,23.40
2023-01-25T05:35:17.062Z,25.92
2023-01-25T05:38:03.985Z,24.17
2023-01-25T05:40:50.957Z,26.00
2023-01-25T05:43:37.954Z,24.48
2023-01-25T05:46:28.009Z,24.90
2023-01-25T05:49:17.539Z,25.80
2023-01-25T05:52:04.994Z,25.55
2023-01-25T05:54:52.297Z,27.65
2023-01-25T05:57:38.893Z,25.38
2023-01-25T06:00:25.257Z,26.67
2023-01-25T06:03:11.882Z,25.42
2023-01-25T06:06:02.765Z,26.75
2023-01-25T06:08:51.205Z,24.20
2023-01-25T06:11:37.690Z,25.42
2023-01-25T06:14:24.172Z,26.35
2023-01-25T06:17:11.696Z,25.52
2023-01-25T06:20:31.686Z,24.70
2023-01-25T06:23:27.162Z,25.92
2023-01-25T06:26:15.881Z,24.40
2023-01-25T06:29:02.337Z,26.15
2023-01-25T06:31:49.015Z,27.05
2023-01-25T06:34:35.667Z,26.92
2023-01-25T06:37:23.060Z,27.30
2023-01-25T06:40:12.606Z,27.95
2023-01-25T06:43:07.414Z,26.58
2023-01-25T06:45:54.481Z,24.75
2023-01-25T06:48:42.857Z,26.95
2023-01-25T06:51:30.266Z,24.88
2023-01-25T06:54:17.292Z,25.10
2023-01-25T06:57:05.920Z,27.85
2023-01-25T06:59:52.595Z,27.48
2023-01-25T07:02:39.181Z,28.13
2023-01-25T07:05:25.889Z,30.65
2023-01-25T07:08:12.578Z,26.90
2023-01-25T07:11:00.738Z,28.10
2023-01-25T07:13:49.263Z,29.77
2023-01-25T07:16:38.550Z,29.67
2023-01-25T07:19:25.385Z,28.13
2023-01-25T07:22:12.222Z,25.90
2023-01-25T07:24:59.074Z,26.92
2023-01-25T07:27:45.638Z,27.38
2023-01-25T07:30:33.581Z,26.52
2023-01-25T07:33:20.141Z,26.42
2023-01-25T07:36:08.904Z,25.67
2023-01-25T07:38:57.043Z,27.13
2023-01-25T07:41:43.901Z,26.75
2023-01-25T07:44:37.548Z,27.10
2023-01-25T07:47:32.998Z,27.20
2023-01-25T07:50:20.356Z,26.50
2023-01-25T07:53:07.254Z,28.70
2023-01-25T07:55:53.951Z,29.38
2023-01-25T07:58:40.982Z,27.38
2023-01-25T08:01:29.465Z,29.25
2023-01-25T08:04:17.434Z,26.83
2023-01-25T08:07:03.831Z,27.42
2023-01-25T08:09:50.638Z,28.13
2023-01-25T08:12:38.066Z,27.02
2023-01-25T08:15:24.479Z,28.05
2023-01-25T08:18:12.179Z,27.33
2023-01-25T08:21:00.988Z,26.90
2023-01-25T08:23:48.093Z,26.30
2023-01-25T08:26:35.657Z,26.88
2023-01-25T08:29:22.451Z,25.98
2023-01-25T08:32:09.070Z,26.95
2023-01-25T08:34:55.760Z,26.63
2023-01-25T08:37:43.947Z,26.52
2023-01-25T08:40:31.281Z,25.75
2023-01-25T08:43:18.201Z,26.80
2023-01-25T08:46:05.813Z,27.55
2023-01-25T08:48:55.899Z,27.08
2023-01-25T08:51:43.560Z,25.95
2023-01-25T08:54:32.183Z,25.70
2023-01-25T08:57:19.268Z,27.58
2023-01-25T09:00:07.730Z,26.90
2023-01-25T09:02:54.428Z,25.10
2023-01-25T09:05:41.106Z,27.33
2023-01-25T09:08:27.714Z,25.70
2023-01-25T09:11:18.161Z,25.85
2023-01-25T09:14:05.344Z,25.48
2023-01-25T09:16:52.224Z,25.35
2023-01-25T09:19:38.723Z,25.50
2023-01-25T09:22:25.560Z,26.02
2023-01-25T09:25:12.630Z,27.98
2023-01-25T09:28:01.005Z,26.58
2023-01-25T09:31:10.925Z,26.67
2023-01-25T09:34:22.616Z,25.85
2023-01-25T09:37:09.427Z,26.35
2023-01-25T09:39:56.362Z,27.02
2023-01-25T09:43:05.265Z,26.65
2023-01-25T09:45:52.314Z,26.67
2023-01-25T09:48:45.401Z,26.25
2023-01-25T09:51:51.173Z,26.58
2023-01-25T09:54:47.090Z,26.98
2023-01-25T09:57:38.027Z,28.30
2023-01-25T10:00:33.010Z,27.02
2023-01-25T10:03:24.588Z,26.55
2023-01-25T10:06:15.136Z,24.58
2023-01-25T10:09:08.715Z,26.88
2023-01-25T10:11:55.751Z,26.60
2023-01-25T10:14:42.547Z,28.02
2023-01-25T10:17:37.107Z,26.33
2023-01-25T10:20:32.968Z,25.88
2023-01-25T10:23:36.018Z,26.40
2023-01-25T10:26:26.174Z,32.05
2023-01-25T10:29:16.064Z,26.88
2023-01-25T10:32:13.922Z,25.70
2023-01-25T10:35:20.060Z,28.23
2023-01-25T10:38:21.203Z,25.30
2023-01-25T10:41:13.436Z,25.77
2023-01-25T10:44:14.365Z,26.05
2023-01-25T10:47:07.314Z,27.27
2023-01-25T10:49:55.699Z,24.23
2023-01-25T10:52:58.815Z,25.63
2023-01-25T10:55:59.239Z,25.33
2023-01-25T10:58:48.038Z,26.50
2023-01-25T11:01:37.391Z,25.67
2023-01-25T11:04:39.165Z,25.55
2023-01-25T11:07:30.172Z,27.35
2023-01-25T11:10:30.425Z,24.23
2023-01-25T11:13:22.963Z,23.38
2023-01-25T11:16:43.593Z,24.60
2023-01-25T11:19:34.519Z,23.50
2023-01-25T11:22:24.047Z,22.80
2023-01-25T11:25:30.914Z,29.92
2023-01-25T11:28:19.859Z,25.88
2023-01-25T11:31:12.362Z,23.45
2023-01-25T11:33:58.855Z,24.35
2023-01-25T11:37:29.173Z,24.13
2023-01-25T11:40:23.469Z,24.98
2023-01-25T11:43:25.010Z,26.80
2023-01-25T11:46:25.073Z,25.10
2023-01-25T11:49:34.358Z,26.70
2023-01-25T11:52:36.225Z,25.73
2023-01-25T11:55:27.802Z,23.75
2023-01-25T11:58:33.765Z,24.52
2023-01-25T12:01:29.081Z,25.02
2023-01-25T12:04:37.935Z,27.15
2023-01-25T12:07:35.703Z,28.08
2023-01-25T12:10:35.338Z,26.20
2023-01-25T12:13:31.284Z,20.13
2023-01-25T12:16:41.926Z,26.80
2023-01-25T12:19:47.471Z,26.67
2023-01-25T12:22:54.940Z,26.80
2023-01-25T12:25:56.895Z,27.35
2023-01-25T12:28:51.523Z,27.98
2023-01-25T12:31:44.956Z,29.60
2023-01-25T12:34:36.790Z,27.60
2023-01-25T12:37:30.825Z,27.08
2023-01-25T12:40:21.482Z,27.65
2023-01-25T12:43:16.491Z,26.92
2023-01-25T12:46:12.033Z,25.58
2023-01-25T12:49:06.972Z,25.70
2023-01-25T12:51:56.561Z,25.63
2023-01-25T12:54:47.269Z,27.80
2023-01-25T12:57:42.816Z,27.27
2023-01-25T13:00:37.618Z,25.88
2023-01-25T13:03:31.485Z,28.13
2023-01-25T13:06:23.418Z,27.20
2023-01-25T13:09:21.211Z,26.45
2023-01-25T13:12:12.644Z,24.25
2023-01-25T13:14:59.472Z,25.85
2023-01-25T13:17:46.251Z,26.23
2023-01-25T13:20:50.606Z,29.17
2023-01-25T13:23:43.814Z,24.95
2023-01-25T13:26:48.400Z,25.73
2023-01-25T13:29:56.716Z,29.92
2023-01-25T13:33:07.059Z,27.92
2023-01-25T13:35:55.316Z,28.45
2023-01-25T13:38:42.002Z,26.70
2023-01-25T13:41:28.723Z,30.33
2023-01-25T13:44:28.290Z,28.23
2023-01-25T13:47:19.075Z,27.40
2023-01-25T13:50:18.698Z,28.73
2023-01-25T13:53:18.698Z,27.27
2023-01-25T13:56:06.279Z,24.83
2023-01-25T13:58:53.048Z,24.92
2023-01-25T14:01:39.592Z,26.08
2023-01-25T14:04:26.531Z,26.83
2023-01-25T14:07:17.856Z,26.13
2023-01-25T14:10:11.566Z,26.42
2023-01-25T14:13:01.265Z,27.08
2023-01-25T14:15:56.112Z,25.02
2023-01-25T14:18:44.818Z,26.05
2023-01-25T14:21:31.377Z,26.88
2023-01-25T14:24:19.144Z,28.30
2023-01-25T14:27:08.388Z,26.95
2023-01-25T14:29:55.399Z,27.55
2023-01-25T14:32:42.709Z,28.98
2023-01-25T14:36:00.100Z,27.48
2023-01-25T14:38:48.829Z,27.35
2023-01-25T14:41:40.155Z,28.13
2023-01-25T14:44:31.426Z,26.52
2023-01-25T14:47:23.685Z,26.58
2023-01-25T14:50:32.559Z,27.23
2023-01-25T14:53:24.376Z,29.50
2023-01-25T14:56:36.555Z,28.38
2023-01-25T14:59:28.646Z,25.92
2023-01-25T15:02:24.641Z,29.08
2023-01-25T15:05:21.128Z,28.67
2023-01-25T15:08:27.949Z,26.42
2023-01-25T15:11:38.809Z,26.67
2023-01-25T15:14:27.415Z,27.13
2023-01-25T15:17:44.145Z,27.95
2023-01-25T15:20:34.709Z,27.90
2023-01-25T15:23:26.538Z,29.65
2023-01-25T15:26:16.644Z,28.73
2023-01-25T15:29:09.131Z,26.80
2023-01-25T15:31:56.976Z,28.23
2023-01-25T15:34:45.489Z,29.08
2023-01-25T15:37:32.185Z,28.23
2023-01-25T15:40:19.086Z,28.45
2023-01-25T15:43:05.502Z,28.73
2023-01-25T15:45:52.378Z,27.40
2023-01-25T15:48:42.711Z,27.65
2023-01-25T15:51:35.333Z,25.30
2023-01-25T15:54:22.765Z,25.10
2023-01-25T15:57:19.061Z,25.98
2023-01-25T16:00:06.929Z,26.98
2023-01-25T16:02:53.733Z,27.55
2023-01-25T16:05:40.444Z,25.48
2023-01-25T16:08:28.453Z,25.92
2023-01-25T16:11:14.860Z,27.67
2023-01-25T16:14:01.334Z,25.17
2023-01-25T16:16:50.645Z,27.45
2023-01-25T16:19:37.898Z,27.50
2023-01-25T16:22:24.629Z,26.83
2023-01-25T16:25:12.998Z,25.45
2023-01-25T16:27:59.725Z,24.38
2023-01-25T16:30:46.559Z,27.38
2023-01-25T16:33:32.733Z,27.67
2023-01-25T16:36:21.976Z,26.05
2023-01-25T16:39:10.723Z,28.30
2023-01-25T16:41:59.078Z,26.60
2023-01-25T16:44:48.467Z,26.60
2023-01-25T16:47:35.064Z,24.67
2023-01-25T16:50:23.641Z,27.90
2023-01-25T16:53:10.578Z,27.13
2023-01-25T16:55:59.556Z,28.35
2023-01-25T16:58:48.754Z,28.75
2023-01-25T17:01:35.498Z,26.27
2023-01-25T17:04:22.071Z,26.95
2023-01-25T17:07:10.412Z,27.83
2023-01-25T17:09:56.740Z,28.98
2023-01-25T17:12:45.411Z,27.27
2023-01-25T17:15:34.789Z,28.42
2023-01-25T17:18:21.616Z,31.58
2023-01-25T17:21:08.365Z,30.83
2023-01-25T17:23:57.673Z,32.40
2023-01-25T17:26:44.837Z,31.58
2023-01-25T17:29:31.637Z,31.30
2023-01-25T17:32:19.560Z,31.38
2023-01-25T17:35:07.226Z,34.88
2023-01-25T17:37:54.850Z,34.30
2023-01-25T17:40:41.622Z,31.92
2023-01-25T17:43:28.351Z,33.60
2023-01-25T17:46:18.077Z,34.17
2023-01-25T17:49:07.939Z,34.38
2023-01-25T17:51:54.572Z,33.65
2023-01-25T17:54:41.245Z,32.65
2023-01-25T17:57:31.361Z,36.13
2023-01-25T18:00:19.250Z,33.45
2023-01-25T18:03:05.871Z,34.05
2023-01-25T18:05:59.304Z,33.60
2023-01-25T18:08:47.832Z,31.55
2023-01-25T18:11:36.340Z,31.33
2023-01-25T18:14:22.802Z,32.80
2023-01-25T18:17:09.218Z,33.08
2023-01-25T18:19:55.684Z,33.28
2023-01-25T18:22:43.768Z,35.72
2023-01-25T18:25:34.353Z,33.35
2023-01-25T18:28:21.069Z,35.78
2023-01-25T18:31:08.657Z,34.53
2023-01-25T18:33:55.415Z,35.15
2023-01-25T18:36:41.911Z,34.72
2023-01-25T18:39:29.779Z,34.17
2023-01-25T18:42:16.712Z,33.30
2023-01-25T18:45:03.437Z,33.53
2023-01-25T18:47:49.877Z,34.63
2023-01-25T18:50:37.095Z,36.25
2023-01-25T18:53:24.030Z,33.42
2023-01-25T18:56:14.743Z,35.83
2023-01-25T18:59:01.262Z,33.83
2023-01-25T19:01:48.223Z,35.40
2023-01-25T19:04:35.065Z,38.67
2023-01-25T19:07:21.580Z,35.25
2023-01-25T19:10:10.269Z,36.28
2023-01-25T19:12:58.473Z,35.35
2023-01-25T19:15:45.131Z,35.78
2023-01-25T19:18:33.046Z,35.60
2023-01-25T19:21:21.592Z,37.35
2023-01-25T19:24:12.190Z,34.95
2023-01-25T19:26:58.943Z,37.45
2023-01-25T19:29:46.893Z,37.33
2023-01-25T19:32:33.566Z,37.53
2023-01-25T19:35:20.243Z,39.45
2023-01-25T19:38:07.430Z,36.75
2023-01-25T19:40:54.248Z,39.10
2023-01-25T19:43:41.941Z,40.58
2023-01-25T19:46:32.473Z,40.83
2023-01-25T19:52:05.394Z,37.78
2023-01-25T19:54:51.873Z,40.33
2023-01-25T19:57:38.509Z,35.92
2023-01-25T20:00:25.732Z,37.88
2023-01-25T20:03:16.646Z,36.00
2023-01-25T20:06:05.069Z,37.88
2023-01-25T20:08:52.505Z,35.72
2023-01-25T20:11:39.719Z,37.63
2023-01-25T20:14:26.431Z,40.63
2023-01-25T20:17:13.088Z,39.53
2023-01-25T20:20:00.978Z,38.80
2023-01-25T20:22:49.491Z,41.13
2023-01-25T20:25:36.666Z,39.28
2023-01-25T20:28:23.238Z,38.58
2023-01-25T20:31:20.328Z,40.63
2023-01-25T20:34:10.834Z,37.80
2023-01-25T20:37:00.260Z,40.38
2023-01-25T20:39:47.127Z,38.45
2023-01-25T20:42:33.736Z,40.92
2023-01-25T20:45:20.280Z,39.40
2023-01-25T20:48:07.411Z,41.65
2023-01-25T20:50:54.406Z,39.63
2023-01-25T20:53:42.885Z,40.08
2023-01-25T20:56:29.715Z,40.10
2023-01-25T20:59:19.119Z,43.08
2023-01-25T21:02:06.054Z,42.47
2023-01-25T21:04:52.517Z,44.25
2023-01-25T21:07:39.000Z,45.10
2023-01-25T21:10:27.763Z,43.67
2023-01-25T21:13:14.487Z,43.05
2023-01-25T21:16:02.254Z,46.20
2023-01-25T21:18:51.189Z,47.72
2023-01-25T21:21:38.616Z,43.20
2023-01-25T21:24:25.241Z,46.53
2023-01-25T21:27:13.070Z,46.33
2023-01-25T21:30:00.096Z,48.17
2023-01-25T21:32:46.961Z,41.95
2023-01-25T21:35:33.767Z,47.38
2023-01-25T21:38:20.801Z,45.38
2023-01-25T21:41:10.002Z,45.10
2023-01-25T21:44:17.624Z,48.70
2023-01-25T21:50:31.308Z,46.00
2023-01-25T21:53:17.853Z,49.95
2023-01-25T21:56:04.637Z,47.55
2023-01-25T21:58:52.134Z,47.80
2023-01-25T22:01:40.913Z,49.38
2023-01-25T22:04:27.667Z,50.42
2023-01-25T22:07:14.435Z,50.95
2023-01-25T22:10:01.066Z,52.08
2023-01-25T22:12:50.593Z,50.88
2023-01-25T22:15:37.436Z,54.03
2023-01-25T22:18:25.741Z,51.85
2023-01-25T22:21:16.536Z,52.67
2023-01-25T22:24:05.141Z,53.75
2023-01-25T22:26:58.834Z,50.67
2023-01-25T22:29:45.355Z,51.72
2023-01-25T22:32:32.028Z,55.28
2023-01-25T22:35:19.845Z,53.25
2023-01-25T22:38:06.454Z,55.58
2023-01-25T22:40:54.629Z,54.85
2023-01-25T22:43:42.311Z,54.05
2023-01-25T22:46:31.522Z,50.65
2023-01-25T22:49:18.069Z,52.78
2023-01-25T22:52:06.155Z,50.55
2023-01-25T22:54:52.876Z,51.78
2023-01-25T22:57:39.663Z,51.53
2023-01-25T23:03:36.059Z,52.35
2023-01-25T23:06:24.378Z,50.10
2023-01-25T23:09:12.229Z,52.85
2023-01-25T23:11:58.884Z,52.78
2023-01-25T23:14:51.510Z,50.05
2023-01-25T23:17:56.160Z,55.58
2023-01-25T23:20:42.652Z,54.33
2023-01-25T23:23:29.933Z,50.80
2023-01-25T23:26:17.949Z,51.60
2023-01-25T23:29:07.125Z,52.25
2023-01-25T23:31:54.100Z,55.17
2023-01-25T23:34:41.486Z,52.25
2023-01-25T23:37:27.870Z,51.90
2023-01-25T23:40:15.333Z,52.95
2023-01-25T23:43:03.011Z,51.95
2023-01-25T23:45:50.175Z,53.10
2023-01-25T23:48:36.835Z,50.17
2023-01-25T23:51:23.572Z,50.33
2023-01-25T23:54:09.700Z,53.67
2023-01-25T23:56:56.312Z,54.08
2023-01-25T23:59:44.200Z,52.25
